createdAt,value
2022-09-27T00:02:26.162Z,20.24
2022-09-27T00:07:27.532Z,20.23
2022-09-27T00:12:28.924Z,20.23
2022-09-27T00:17:30.284Z,20.22
2022-09-27T00:22:32.067Z,20.25
2022-09-27T00:27:33.432Z,20.21
2022-09-27T00:32:34.794Z,20.24
2022-09-27T00:37:36.148Z,20.20
2022-09-27T00:42:37.564Z,20.21
2022-09-27T00:47:47.919Z,20.20
2022-09-27T00:53:03.768Z,20.22
2022-09-27T00:58:05.013Z,20.21
2022-09-27T01:03:06.368Z,20.22
2022-09-27T01:08:07.745Z,20.19
2022-09-27T01:13:36.353Z,20.20
2022-09-27T01:19:07.956Z,20.22
2022-09-27T01:24:25.475Z,20.19
2022-09-27T01:29:33.612Z,20.19
2022-09-27T01:34:42.740Z,20.18
2022-09-27T01:40:00.072Z,20.19
2022-09-27T01:45:09.592Z,20.17
2022-09-27T01:50:16.694Z,20.17
2022-09-27T01:55:18.536Z,20.17
2022-09-27T02:00:19.893Z,20.20
2022-09-27T02:05:21.256Z,20.17
2022-09-27T02:10:24.756Z,20.17
2022-09-27T02:15:26.435Z,20.19
2022-09-27T02:20:31.491Z,20.18
2022-09-27T02:25:43.036Z,20.17
2022-09-27T02:30:44.879Z,20.18
2022-09-27T02:35:46.260Z,20.19
2022-09-27T02:40:47.821Z,20.19
2022-09-27T02:45:52.275Z,20.16
2022-09-27T02:51:18.277Z,20.17
2022-09-27T02:56:26.833Z,20.17
2022-09-27T03:01:35.611Z,20.16
2022-09-27T03:06:38.284Z,20.18
2022-09-27T03:11:39.662Z,20.18
2022-09-27T03:16:41.055Z,20.15
2022-09-27T03:21:42.477Z,20.16
2022-09-27T03:26:43.896Z,20.16
2022-09-27T03:31:45.341Z,20.15
2022-09-27T03:36:46.697Z,20.15
2022-09-27T03:41:48.132Z,20.15
2022-09-27T03:46:49.486Z,20.15
2022-09-27T03:51:50.860Z,20.14
2022-09-27T03:56:52.240Z,20.15
2022-09-27T04:01:53.631Z,20.12
2022-09-27T04:06:55.025Z,20.16
2022-09-27T04:11:56.381Z,20.18
2022-09-27T04:16:57.787Z,20.14
2022-09-27T04:21:59.189Z,20.05
2022-09-27T04:27:00.573Z,20.08
2022-09-27T04:32:01.954Z,20.20
2022-09-27T04:37:03.586Z,20.30
2022-09-27T04:42:05.027Z,20.38
2022-09-27T04:52:12.685Z,20.47
2022-09-27T04:57:14.428Z,20.52
2022-09-27T05:02:15.846Z,20.54
2022-09-27T05:07:17.609Z,20.57
2022-09-27T05:12:19.448Z,20.58
2022-09-27T05:17:22.193Z,20.60
2022-09-27T05:22:23.600Z,20.62
2022-09-27T05:27:24.980Z,20.58
2022-09-27T05:32:26.340Z,20.57
2022-09-27T05:37:27.742Z,20.54
2022-09-27T05:42:29.096Z,20.52
2022-09-27T05:47:30.461Z,20.48
2022-09-27T05:52:31.829Z,20.50
2022-09-27T05:57:34.741Z,20.48
2022-09-27T06:02:36.174Z,20.47
2022-09-27T06:07:37.814Z,20.48
2022-09-27T06:12:39.208Z,20.50
2022-09-27T06:17:40.744Z,20.62
2022-09-27T06:22:42.125Z,20.81
2022-09-27T06:27:43.972Z,20.88
2022-09-27T06:32:45.345Z,20.97
2022-09-27T06:37:47.269Z,21.07
2022-09-27T06:42:49.812Z,21.09
2022-09-27T06:47:51.173Z,21.22
2022-09-27T06:52:52.536Z,21.24
2022-09-27T06:58:14.865Z,21.34
2022-09-27T07:03:16.344Z,21.37
2022-09-27T07:08:19.360Z,21.23
2022-09-27T07:13:20.872Z,21.16
2022-09-27T07:18:22.532Z,21.08
2022-09-27T07:23:23.901Z,21.08
2022-09-27T07:28:25.264Z,21.05
2022-09-27T07:33:26.660Z,21.09
2022-09-27T07:38:28.072Z,21.16
2022-09-27T07:43:29.450Z,21.23
2022-09-27T07:48:32.113Z,21.21
2022-09-27T07:53:33.789Z,21.27
2022-09-27T07:58:35.148Z,21.33
2022-09-27T08:03:36.585Z,21.26
2022-09-27T08:08:38.288Z,21.29
2022-09-27T08:13:39.961Z,21.29
2022-09-27T08:18:41.416Z,21.39
2022-09-27T08:23:42.878Z,21.33
2022-09-27T08:28:44.303Z,21.31
2022-09-27T08:33:51.640Z,21.33
2022-09-27T08:38:57.548Z,21.36
2022-09-27T08:44:17.757Z,21.27
2022-09-27T08:49:33.685Z,21.25
2022-09-27T08:54:35.084Z,21.26
2022-09-27T08:59:45.741Z,21.20
2022-09-27T09:04:49.246Z,21.17
2022-09-27T09:09:53.941Z,21.12
2022-09-27T09:15:54.026Z,21.14
2022-09-27T09:21:26.260Z,21.11
2022-09-27T09:26:30.518Z,21.06
2022-09-27T09:31:43.743Z,21.03
2022-09-27T09:36:47.748Z,21.09
2022-09-27T09:42:22.580Z,21.16
2022-09-27T09:47:33.176Z,21.19
2022-09-27T09:52:42.378Z,21.22
2022-09-27T09:57:53.570Z,21.27
2022-09-27T10:02:55.616Z,21.29
2022-09-27T10:07:58.684Z,21.30
2022-09-27T10:13:00.124Z,21.32
2022-09-27T10:18:01.538Z,21.34
2022-09-27T10:23:14.636Z,21.38
2022-09-27T10:28:37.088Z,21.36
2022-09-27T10:33:40.504Z,21.34
2022-09-27T10:38:41.877Z,21.37
2022-09-27T10:43:43.281Z,21.34
2022-09-27T10:48:45.032Z,21.32
2022-09-27T10:53:46.713Z,21.38
2022-09-27T10:58:48.070Z,21.39
2022-09-27T11:03:52.997Z,21.43
2022-09-27T11:08:55.364Z,21.42
2022-09-27T11:14:05.016Z,21.43
2022-09-27T11:19:46.359Z,21.43
2022-09-27T11:25:15.959Z,21.41
2022-09-27T11:30:21.100Z,21.42
2022-09-27T11:35:32.531Z,21.44
2022-09-27T11:40:45.677Z,21.45
2022-09-27T11:46:16.730Z,21.47
2022-09-27T11:51:29.757Z,21.43
2022-09-27T11:56:42.847Z,21.45
2022-09-27T12:02:17.822Z,21.41
2022-09-27T12:07:36.953Z,21.46
2022-09-27T12:12:38.938Z,21.44
2022-09-27T12:17:42.644Z,21.45
2022-09-27T12:23:00.268Z,21.47
2022-09-27T12:28:40.751Z,21.49
2022-09-27T12:33:51.074Z,21.51
2022-09-27T12:39:04.369Z,21.52
2022-09-27T12:44:05.726Z,21.50
2022-09-27T12:49:27.801Z,21.53
2022-09-27T12:54:32.138Z,21.55
2022-09-27T12:59:57.707Z,21.52
2022-09-27T13:05:46.708Z,21.54
2022-09-27T13:11:05.802Z,21.55
2022-09-27T13:16:07.295Z,21.45
2022-09-27T13:21:09.351Z,21.38
2022-09-27T13:26:34.570Z,21.35
2022-09-27T13:31:54.114Z,21.35
2022-09-27T13:36:55.549Z,21.34
2022-09-27T13:42:10.728Z,21.26
2022-09-27T13:47:33.528Z,21.13
2022-09-27T13:52:37.916Z,21.08
2022-09-27T13:57:42.241Z,21.04
2022-09-27T14:03:17.112Z,21.07
2022-09-27T14:08:34.241Z,21.02
2022-09-27T14:13:35.856Z,20.99
2022-09-27T14:23:42.240Z,20.92
2022-09-27T14:28:43.601Z,20.89
2022-09-27T14:33:45.129Z,20.93
2022-09-27T14:38:48.124Z,20.99
2022-09-27T14:43:50.421Z,20.92
2022-09-27T14:48:51.804Z,20.89
2022-09-27T14:53:58.372Z,20.87
2022-09-27T14:59:06.470Z,20.93
2022-09-27T15:04:08.902Z,20.89
2022-09-27T15:09:13.323Z,20.88
2022-09-27T15:14:16.224Z,20.85
2022-09-27T15:19:26.809Z,20.85
2022-09-27T15:24:45.002Z,20.89
2022-09-27T15:29:51.332Z,20.86
2022-09-27T15:34:52.731Z,20.86
2022-09-27T15:39:54.246Z,20.80
2022-09-27T15:44:58.693Z,20.78
2022-09-27T15:50:17.676Z,20.88
2022-09-27T15:55:25.093Z,20.90
2022-09-27T16:00:29.202Z,20.91
2022-09-27T16:05:33.001Z,20.99
2022-09-27T16:10:38.956Z,20.99
2022-09-27T16:15:40.349Z,21.04
2022-09-27T16:20:41.750Z,21.05
2022-09-27T16:25:43.125Z,21.01
2022-09-27T16:30:45.076Z,21.04
2022-09-27T16:35:46.436Z,20.94
2022-09-27T16:40:47.862Z,20.98
2022-09-27T16:45:49.278Z,20.94
2022-09-27T16:51:08.969Z,20.99
2022-09-27T16:56:10.346Z,20.91
2022-09-27T17:01:11.793Z,20.86
2022-09-27T17:06:13.223Z,20.91
2022-09-27T17:11:15.387Z,20.87
2022-09-27T17:16:16.990Z,20.83
2022-09-27T17:21:18.448Z,20.83
2022-09-27T17:26:21.114Z,20.84
2022-09-27T17:31:22.553Z,20.78
2022-09-27T17:36:29.703Z,20.78
2022-09-27T17:41:31.177Z,20.84
2022-09-27T17:46:36.633Z,20.77
2022-09-27T17:51:39.125Z,20.76
2022-09-27T17:56:42.386Z,20.74
2022-09-27T18:01:44.595Z,20.71
2022-09-27T18:06:46.452Z,20.69
2022-09-27T18:11:48.231Z,20.69
2022-09-27T18:16:49.652Z,20.68
2022-09-27T18:21:51.070Z,20.65
2022-09-27T18:26:54.200Z,20.62
2022-09-27T18:31:55.655Z,20.66
2022-09-27T18:36:57.057Z,20.64
2022-09-27T18:41:58.438Z,20.62
2022-09-27T18:46:59.943Z,20.63
2022-09-27T18:52:02.427Z,20.59
2022-09-27T18:57:03.792Z,20.59
2022-09-27T19:02:05.236Z,20.50
2022-09-27T19:07:07.997Z,20.53
2022-09-27T19:12:10.265Z,20.57
2022-09-27T19:17:11.624Z,20.57
2022-09-27T19:22:12.987Z,20.50
2022-09-27T19:27:14.350Z,20.51
2022-09-27T19:32:15.704Z,20.51
2022-09-27T19:37:17.066Z,20.55
2022-09-27T19:42:18.517Z,20.49
2022-09-27T19:47:19.961Z,20.51
2022-09-27T19:52:21.324Z,20.52
2022-09-27T19:57:22.892Z,20.52
2022-09-27T20:02:24.385Z,20.50
2022-09-27T20:07:25.906Z,20.43
2022-09-27T20:12:27.400Z,20.51
2022-09-27T20:17:32.689Z,20.48
2022-09-27T20:22:34.052Z,20.47
2022-09-27T20:27:37.336Z,20.45
2022-09-27T20:32:38.800Z,20.45
2022-09-27T20:37:40.172Z,20.41
2022-09-27T20:42:41.530Z,20.47
2022-09-27T20:47:42.893Z,20.44
2022-09-27T20:52:44.346Z,20.42
2022-09-27T20:57:57.480Z,20.42
2022-09-27T21:02:59.289Z,20.43
2022-09-27T21:08:00.796Z,20.43
2022-09-27T21:13:02.153Z,20.43
2022-09-27T21:18:03.564Z,20.40
2022-09-27T21:23:04.940Z,20.41
2022-09-27T21:28:06.314Z,20.40
2022-09-27T21:33:07.669Z,20.37
2022-09-27T21:38:09.029Z,20.32
2022-09-27T21:43:10.896Z,20.37
2022-09-27T21:48:12.256Z,20.36
2022-09-27T21:53:13.616Z,20.33
2022-09-27T21:58:14.988Z,20.35
2022-09-27T22:03:16.352Z,20.33
2022-09-27T22:08:17.936Z,20.35
2022-09-27T22:13:19.289Z,20.32
2022-09-27T22:18:20.640Z,20.26
2022-09-27T22:23:21.993Z,20.23
2022-09-27T22:28:23.620Z,20.26
2022-09-27T22:33:24.981Z,20.29
2022-09-27T22:38:26.341Z,20.40
2022-09-27T22:43:29.116Z,20.40
2022-09-27T22:48:30.733Z,20.37
2022-09-27T22:53:32.276Z,20.37
2022-09-27T22:58:33.950Z,20.37
2022-09-27T23:03:35.519Z,20.38
2022-09-27T23:08:37.004Z,20.48
2022-09-27T23:13:40.002Z,20.50
2022-09-27T23:18:41.927Z,20.46
2022-09-27T23:23:44.777Z,20.47
2022-09-27T23:28:46.205Z,20.51
2022-09-27T23:33:48.733Z,20.52
2022-09-27T23:38:50.233Z,20.48
2022-09-27T23:43:53.168Z,20.52
2022-09-27T23:48:54.590Z,20.47
2022-09-27T23:53:57.560Z,20.44
2022-09-27T23:59:00.929Z,20.50
